Flight Track Log - Related Links

Times and Time Zones

All times are in EDT time to prevent confusion due to time zone crossing. See the RPA4901 flight status page for this flight to view local times or setup timezone preferences in your user account.

Time Position Orientation Groundspeed Altitude Reporting Facility
EDT Latitude Longitude Course Direction KTS MPH feet Rate Location/Type
Mon 10:57:46 PM 39.9167 -104.7167 207° Southwest 198 228 7,300  Level Denver TRACON
Mon 10:58:46 PM 39.8833 -104.7833 237° Southwest 228 262 9,700 2,462 Climbing Denver TRACON
Mon 10:59:04 PM 39.8681 -104.7831 179° South 227 261 10,500 2,700 Climbing Denver Center
Mon 11:00:06 PM 39.8075 -104.8039 195° South 227 261 13,300 2,390 Climbing Denver Center
Mon 11:01:07 PM 39.7506 -104.8297 199° South 206 237 15,400 1,805 Climbing Denver Center
Mon 11:02:09 PM 39.6906 -104.8525 196° South 226 260 17,000 1,561 Climbing Denver Center
Mon 11:03:00 PM 39.3758 -104.9106 207° Southwest  Level FlightAware Approximate
Mon 11:03:10 PM 39.6308 -104.8744 196° South 221 254 18,600  Level Denver Center
Mon 11:04:12 PM 39.5681 -104.8994 197° South 220 253 20,000 1,122 Climbing Denver Center
Mon 11:05:13 PM 39.5189 -104.9181 196° South 237 273 20,900 1,024 Climbing Denver Center
Mon 11:06:15 PM 39.4406 -104.9492 197° South 240 276 22,100 1,171 Climbing Denver Center
Mon 11:07:16 PM 39.3708 -104.9736 195° South 241 277 23,300 934 Climbing Denver Center
Mon 11:08:17 PM 39.3058 -104.9986 197° South 242 278 24,000 341 Climbing Denver Center
Mon 11:09:19 PM 39.2336 -105.0264 197° South 268 308 24,000  Level Denver Center
Mon 11:10:20 PM 39.1553 -105.0572 197° South 292 336 24,000  Level Denver Center
Mon 11:11:22 PM 39.0786 -105.0972 202° Southwest 293 337 24,000 242 Level Denver Center
Mon 11:12:24 PM 39.0022 -105.1442 206° Southwest 300 345 24,500 488 Climbing Denver Center
Mon 11:13:25 PM 38.9258 -105.1892 205° Southwest 299 344 25,000 244 Climbing Denver Center
Mon 11:14:27 PM 38.8444 -105.2369 205° Southwest 300 345 25,000  Level Denver Center
Mon 11:15:28 PM 38.7689 -105.2803 204° Southwest 308 354 25,000  Level Denver Center
Mon 11:16:30 PM 38.6806 -105.3333 205° Southwest 313 360 25,000  Level Denver Center
Mon 11:17:31 PM 38.6022 -105.3772 204° Southwest 320 368 25,000  Level Denver Center
Mon 11:18:33 PM 38.5078 -105.4206 200° South 325 374 25,000  Level Denver Center
Mon 11:19:34 PM 38.4208 -105.4489 194° South 336 387 25,000  Level Denver Center
Mon 11:20:36 PM 38.3203 -105.4842 195° South 336 387 25,000  Level Denver Center
Mon 11:21:37 PM 38.2336 -105.5147 195° South 337 388 25,000  Level Denver Center
Mon 11:22:39 PM 38.1489 -105.5439 195° South 332 382 25,000  Level Denver Center
Mon 11:23:41 PM 38.0514 -105.5758 194° South 326 375 25,000  Level Denver Center
Mon 11:24:42 PM 37.9678 -105.6058 196° South 326 375 25,000  Level Denver Center
Mon 11:25:44 PM 37.8692 -105.6389 195° South 327 376 25,000  Level Denver Center
Mon 11:26:45 PM 37.7842 -105.6678 195° South 330 380 25,000  Level Denver Center
Mon 11:27:47 PM 37.6831 -105.7022 195° South 335 386 25,000  Level Denver Center
Mon 11:28:49 PM 37.5972 -105.7308 195° South 334 384 25,000  Level Denver Center
Mon 11:29:50 PM 37.5022 -105.7622 195° South 329 379 25,000  Level Denver Center
Mon 11:30:52 PM 37.4161 -105.7919 195° South 333 383 25,000  Level Denver Center
Mon 11:31:53 PM 37.3444 -105.8161 195° South 334 384 25,000  Level Denver Center
Mon 11:32:55 PM 37.2317 -105.8664 200° South 335 386 25,000  Level Denver Center
Mon 11:33:56 PM 37.1478 -105.9053 200° South 335 386 25,000  Level Denver Center
Mon 11:34:58 PM 37.0508 -105.9478 199° South 331 381 25,000  Level Denver Center
Mon 11:35:59 PM 36.9611 -105.9867 199° South 340 391 25,000  Level Denver Center
Mon 11:37:01 PM 36.8756 -106.0250 200° South 342 394 25,000  Level Denver Center
Mon 11:38:02 PM 36.7744 -106.0678 199° South 342 394 25,000  Level Denver Center
Mon 11:39:04 PM 36.6869 -106.1092 201° Southwest 331 381 25,000  Level Denver Center
Mon 11:39:55 PM 36.6108 -106.1444 200° South 340 391 25,000  Level Albuquerque Center
Mon 11:40:56 PM 36.5283 -106.1803 199° South 332 382 25,000  Level Albuquerque Center
Mon 11:41:58 PM 36.4311 -106.2211 199° South 329 379 25,000  Level Albuquerque Center
Mon 11:42:59 PM 36.3503 -106.2567 200° South 324 373 25,000  Level Albuquerque Center
Mon 11:44:00 PM 36.2711 -106.2931 200° South 320 368 25,000  Level Albuquerque Center
Mon 11:45:02 PM 36.1756 -106.3347 199° South 323 372 25,000  Level Albuquerque Center
Mon 11:46:03 PM 36.1025 -106.3656 199° South 329 379 25,000 -885 Level Albuquerque Center
Mon 11:47:04 PM 35.9944 -106.4139 200° South 341 392 23,200 -1,672 Descending Albuquerque Center
Mon 11:48:05 PM 35.9017 -106.4506 198° South 345 397 21,600 -1,463 Descending Albuquerque Center
Mon 11:49:07 PM 35.8144 -106.4894 200° South 346 398 20,200 -1,659 Descending Albuquerque Center
Mon 11:50:08 PM 35.7194 -106.5319 200° South 349 402 18,200 -2,087 Descending Albuquerque Center
Mon 11:50:39 PM 35.6681 -106.5522 198° South 349 402 17,000 -1,967 Descending Albuquerque Center
Mon 11:51:09 PM 35.6281 -106.5697 200° South 348 400 16,200 -1,881 Descending Albuquerque Center
Mon 11:51:46 PM 35.5633 -106.5875 193° South 346 398 14,900 -1,770 Descending Albuquerque Center
Mon 11:52:10 PM 35.5342 -106.5897 184° South 349 402 14,400 -1,700 Descending Albuquerque Center
Mon 11:52:46 PM 35.4669 -106.5969 185° South 341 392 13,200 -1,770 Descending Albuquerque Center
Mon 11:53:11 PM 35.4394 -106.6000 185° South 341 392 12,600 -1,881 Descending Albuquerque Center
Mon 11:53:53 PM 35.3703 -106.6064 184° South 329 379 11,100 -1,742 Descending Albuquerque Center
Mon 11:54:13 PM 35.3489 -106.6069 181° South 332 382 10,800 -1,377 Descending Albuquerque Center
Mon 11:54:54 PM 35.2794 -106.5986 174° South 301 346 9,700 -1,180 Descending Albuquerque Center
Mon 11:55:14 PM 35.2683 -106.5903 149° Southeast 309 356 9,600 -700 Descending Albuquerque Center
Mon 11:55:54 PM 35.2103 -106.5697 164° South 245 282 9,000 -787 Descending Albuquerque Center
Mon 11:56:15 PM 35.2000 -106.5633 153° Southeast 279 321 8,800 -1,180 Descending Albuquerque Center
Mon 11:56:55 PM 35.1533 -106.5611 178° South 193 222 7,800 -1,279 Descending Albuquerque Center
Mon 11:57:16 PM 35.1442 -106.5592 170° South 228 262 7,500 -984 Descending Albuquerque Center
Mon 11:57:56 PM 35.1031 -106.5664 188° South 165 190 6,800 -787 Descending Albuquerque Center
Mon 11:58:17 PM 35.0953 -106.5633 162° South 197 227 6,700 -800 Descending Albuquerque Center
Mon 11:58:56 PM 35.0625 -106.5667 185° South 142 163 6,000 -885 Descending Albuquerque Center
Mon 11:59:18 PM 35.0547 -106.5642 165° South 168 193 5,800 -506 Descending Albuquerque Center
Tue 12:00:19 AM 35.0431 -106.6014 249° West 147 169 5,300 -492 Descending Albuquerque Center

Login

Don't have an account? Register now (free) for customized features, flight alerts, and more!